createdAt,value
2022-11-08T04:02:38.667Z,5.48
2022-11-08T04:03:38.522Z,5.53
2022-11-08T04:04:38.524Z,5.51
2022-11-08T04:05:38.489Z,5.47
2022-11-08T04:06:39.615Z,5.48
2022-11-08T04:07:39.609Z,5.46
2022-11-08T04:08:39.624Z,5.53
2022-11-08T04:09:39.657Z,5.50
2022-11-08T04:10:39.596Z,5.44
2022-11-08T04:11:39.616Z,5.50
2022-11-08T04:12:39.610Z,5.46
2022-11-08T04:13:39.588Z,5.44
2022-11-08T04:14:39.617Z,5.44
2022-11-08T04:15:39.565Z,5.46
2022-11-08T04:16:39.674Z,5.39
2022-11-08T04:17:39.557Z,5.39
2022-11-08T04:18:39.529Z,5.25
2022-11-08T04:19:39.545Z,5.39
2022-11-08T04:20:39.508Z,5.38
2022-11-08T04:21:39.551Z,5.38
2022-11-08T04:22:39.546Z,5.36
2022-11-08T04:23:39.512Z,5.33
2022-11-08T04:24:39.513Z,5.32
2022-11-08T04:25:39.473Z,5.35
2022-11-08T04:26:39.511Z,5.46
2022-11-08T04:27:39.485Z,5.33
2022-11-08T04:28:39.462Z,5.38
2022-11-08T04:29:39.471Z,5.28
2022-11-08T04:30:39.468Z,5.32
2022-11-08T04:31:39.426Z,5.36
2022-11-08T04:32:39.443Z,5.25
2022-11-08T04:33:39.423Z,5.23
2022-11-08T04:34:39.551Z,5.29
2022-11-08T04:35:39.429Z,5.18
2022-11-08T04:36:39.391Z,5.26
2022-11-08T04:37:39.422Z,5.30
2022-11-08T04:38:39.386Z,5.23
2022-11-08T04:39:39.400Z,5.33
2022-11-08T04:40:39.414Z,5.32
2022-11-08T04:41:39.391Z,5.35
2022-11-08T04:42:39.365Z,5.28
2022-11-08T04:43:39.336Z,5.35
2022-11-08T04:44:39.331Z,5.28
2022-11-08T04:45:39.351Z,5.43
2022-11-08T04:46:39.340Z,5.41
2022-11-08T04:47:43.142Z,5.35
2022-11-08T04:48:41.305Z,5.44
2022-11-08T04:49:39.311Z,5.46
2022-11-08T04:50:39.288Z,5.46
2022-11-08T04:51:40.253Z,5.47
2022-11-08T04:52:39.270Z,5.44
2022-11-08T04:53:39.279Z,5.41
2022-11-08T04:54:39.245Z,5.32
2022-11-08T04:55:39.236Z,5.36
2022-11-08T04:56:39.249Z,5.32
2022-11-08T04:57:39.265Z,5.28
2022-11-08T04:58:39.249Z,5.29
2022-11-08T04:59:39.222Z,5.26
2022-11-08T05:00:39.200Z,5.25
2022-11-08T05:01:39.431Z,5.23
2022-11-08T05:02:39.275Z,5.26
2022-11-08T05:03:39.177Z,5.29
2022-11-08T05:04:39.196Z,5.26
2022-11-08T05:05:39.180Z,5.39
2022-11-08T05:06:39.287Z,5.41
2022-11-08T05:07:39.186Z,5.43
2022-11-08T05:08:39.183Z,5.36
2022-11-08T05:09:39.123Z,5.26
2022-11-08T05:10:39.415Z,5.29
2022-11-08T05:11:39.104Z,5.21
2022-11-08T05:12:39.149Z,5.20
2022-11-08T05:13:39.131Z,5.18
2022-11-08T05:14:39.110Z,5.02
2022-11-08T05:15:39.085Z,5.04
2022-11-08T05:16:39.072Z,4.94
2022-11-08T05:17:39.078Z,4.94
2022-11-08T05:18:41.738Z,5.07
2022-11-08T05:19:39.070Z,5.07
2022-11-08T05:20:39.067Z,5.00
2022-11-08T05:21:39.054Z,5.00
2022-11-08T05:22:39.033Z,4.96
2022-11-08T05:23:39.025Z,5.00
2022-11-08T05:24:39.033Z,5.02
2022-11-08T05:25:39.061Z,5.02
2022-11-08T05:26:39.034Z,4.97
2022-11-08T05:27:39.004Z,5.00
2022-11-08T05:28:38.982Z,4.92
2022-11-08T05:29:42.178Z,5.00
2022-11-08T05:30:39.979Z,4.87
2022-11-08T05:31:38.966Z,4.77
2022-11-08T05:32:39.010Z,4.87
2022-11-08T05:33:38.956Z,4.82
2022-11-08T05:34:38.962Z,4.87
2022-11-08T05:35:38.946Z,4.89
2022-11-08T05:36:38.960Z,4.97
2022-11-08T05:37:38.906Z,4.99
2022-11-08T05:38:40.023Z,4.97
2022-11-08T05:39:38.940Z,4.99
2022-11-08T05:40:38.911Z,4.99
2022-11-08T05:41:38.898Z,5.08
2022-11-08T05:42:38.896Z,5.10
2022-11-08T05:43:38.917Z,5.17
2022-11-08T05:44:38.909Z,5.08
2022-11-08T05:45:38.871Z,5.25
2022-11-08T05:46:38.870Z,5.17
2022-11-08T05:47:38.860Z,5.28
2022-11-08T05:48:38.854Z,5.25
2022-11-08T05:49:38.905Z,5.20
2022-11-08T05:50:38.813Z,5.21
2022-11-08T05:51:38.847Z,5.25
2022-11-08T05:52:38.819Z,5.32
2022-11-08T05:53:38.808Z,5.33
2022-11-08T05:54:38.824Z,5.35
2022-11-08T05:55:38.784Z,5.32
2022-11-08T05:56:38.798Z,5.36
2022-11-08T05:57:38.777Z,5.30
2022-11-08T05:58:38.799Z,5.36
2022-11-08T05:59:38.793Z,5.44
2022-11-08T06:00:38.781Z,5.41
2022-11-08T06:01:38.808Z,5.43
2022-11-08T06:02:38.792Z,5.36
2022-11-08T06:03:38.787Z,5.43
2022-11-08T06:04:38.750Z,5.35
2022-11-08T06:05:38.712Z,5.28
2022-11-08T06:06:38.713Z,5.29
2022-11-08T06:07:38.707Z,5.30
2022-11-08T06:08:38.700Z,5.28
2022-11-08T06:09:38.704Z,5.35
2022-11-08T06:10:38.683Z,5.35
2022-11-08T06:11:38.689Z,5.32
2022-11-08T06:12:38.715Z,5.30
2022-11-08T06:13:38.649Z,5.26
2022-11-08T06:14:38.705Z,5.25
2022-11-08T06:15:38.662Z,5.29
2022-11-08T06:16:38.649Z,5.26
2022-11-08T06:17:38.645Z,5.29
2022-11-08T06:18:38.662Z,5.25
2022-11-08T06:19:38.624Z,5.30
2022-11-08T06:20:38.632Z,5.32
2022-11-08T06:21:38.619Z,5.43
2022-11-08T06:22:38.581Z,5.47
2022-11-08T06:23:38.575Z,5.47
2022-11-08T06:24:38.572Z,5.43
2022-11-08T06:25:38.564Z,5.48
2022-11-08T06:26:38.587Z,5.53
2022-11-08T06:27:38.569Z,5.64
2022-11-08T06:28:38.557Z,5.65
2022-11-08T06:29:38.610Z,5.71
2022-11-08T06:30:38.529Z,5.65
2022-11-08T06:31:42.885Z,5.71
2022-11-08T06:32:39.496Z,5.65
2022-11-08T06:33:39.555Z,5.61
2022-11-08T06:34:38.493Z,5.66
2022-11-08T06:35:38.501Z,5.79
2022-11-08T06:36:38.509Z,5.76
2022-11-08T06:37:39.512Z,5.69
2022-11-08T06:38:38.494Z,5.73
2022-11-08T06:39:38.456Z,5.69
2022-11-08T06:40:38.482Z,5.80
2022-11-08T06:41:38.505Z,5.75
2022-11-08T06:42:39.240Z,5.68
2022-11-08T06:43:38.437Z,5.72
2022-11-08T06:44:38.421Z,5.71
2022-11-08T06:45:38.423Z,5.72
2022-11-08T06:46:38.416Z,5.72
2022-11-08T06:47:38.402Z,5.75
2022-11-08T06:48:38.457Z,5.64
2022-11-08T06:49:38.420Z,5.73
2022-11-08T06:50:38.373Z,5.76
2022-11-08T06:51:38.404Z,5.71
2022-11-08T06:52:38.360Z,5.73
2022-11-08T06:53:38.468Z,5.87
2022-11-08T06:54:38.357Z,5.84
2022-11-08T06:55:38.356Z,5.90
2022-11-08T06:56:38.336Z,5.80
2022-11-08T06:57:38.347Z,5.84
2022-11-08T06:58:38.336Z,5.93
2022-11-08T06:59:38.375Z,5.90
2022-11-08T07:00:38.342Z,5.98
2022-11-08T07:01:42.013Z,5.98
2022-11-08T07:02:40.419Z,5.87
2022-11-08T07:03:38.320Z,5.97
2022-11-08T07:04:38.336Z,6.08
2022-11-08T07:05:38.344Z,6.08
2022-11-08T07:06:38.303Z,6.01
2022-11-08T07:07:38.251Z,5.87
2022-11-08T07:08:38.290Z,5.98
2022-11-08T07:09:38.310Z,6.02
2022-11-08T07:10:38.265Z,6.12
2022-11-08T07:11:38.247Z,6.07
2022-11-08T07:12:38.216Z,6.14
2022-11-08T07:13:38.247Z,6.01
2022-11-08T07:14:38.237Z,6.11
2022-11-08T07:15:38.232Z,6.09
2022-11-08T07:16:38.201Z,6.09
2022-11-08T07:17:38.954Z,5.98
2022-11-08T07:18:39.411Z,6.05
2022-11-08T07:19:38.180Z,6.05
2022-11-08T07:20:38.243Z,6.14
2022-11-08T07:21:38.182Z,6.26
2022-11-08T07:22:38.190Z,6.31
2022-11-08T07:23:38.215Z,6.24
2022-11-08T07:24:38.172Z,6.19
2022-11-08T07:25:38.129Z,6.26
2022-11-08T07:26:38.282Z,6.11
2022-11-08T07:27:38.137Z,6.11
2022-11-08T07:28:38.143Z,6.05
2022-11-08T07:30:10.007Z,6.02
2022-11-08T07:30:38.128Z,6.22
2022-11-08T07:31:38.103Z,6.02
2022-11-08T07:32:38.064Z,6.04
2022-11-08T07:33:38.075Z,6.05
2022-11-08T07:34:38.094Z,5.98
2022-11-08T07:35:38.065Z,5.91
2022-11-08T07:36:38.070Z,6.04
2022-11-08T07:37:38.032Z,6.05
2022-11-08T07:38:38.042Z,6.07
2022-11-08T07:39:38.041Z,6.09
2022-11-08T07:40:38.012Z,6.16
2022-11-08T07:41:38.012Z,6.24
2022-11-08T07:43:04.838Z,6.19
2022-11-08T07:43:40.028Z,6.35
2022-11-08T07:44:37.994Z,6.59
2022-11-08T07:45:37.981Z,6.64
2022-11-08T07:46:37.968Z,6.88
2022-11-08T07:47:37.959Z,6.85
2022-11-08T07:48:37.989Z,6.93
2022-11-08T07:49:37.954Z,7.20
2022-11-08T07:50:37.930Z,7.42
2022-11-08T07:51:37.921Z,7.15
2022-11-08T07:52:37.920Z,7.36
2022-11-08T07:53:38.774Z,7.45
2022-11-08T07:54:37.940Z,7.39
2022-11-08T07:55:37.894Z,7.15
2022-11-08T07:56:37.895Z,7.23
2022-11-08T07:57:37.875Z,7.33
2022-11-08T07:58:37.864Z,7.29
2022-11-08T07:59:37.917Z,7.47
2022-11-08T08:00:37.884Z,7.80
2022-11-08T08:01:37.913Z,8.30
2022-11-08T08:02:37.922Z,8.56
2022-11-08T08:03:37.864Z,8.71
2022-11-08T08:04:37.835Z,8.81
2022-11-08T08:05:37.834Z,8.74
2022-11-08T08:06:37.836Z,9.56
2022-11-08T08:07:37.814Z,9.86
2022-11-08T08:08:37.815Z,10.33
2022-11-08T08:09:37.800Z,9.48
2022-11-08T08:10:37.782Z,8.94
2022-11-08T08:11:37.810Z,9.02
2022-11-08T08:12:37.853Z,9.13
2022-11-08T08:13:37.769Z,9.36
2022-11-08T08:15:09.697Z,9.54
2022-11-08T08:15:37.786Z,9.55
2022-11-08T08:16:38.340Z,9.32
2022-11-08T08:17:37.753Z,9.03
2022-11-08T08:18:37.749Z,8.53
2022-11-08T08:19:37.712Z,8.45
2022-11-08T08:20:37.703Z,8.49
2022-11-08T08:21:38.721Z,8.41
2022-11-08T08:22:37.735Z,8.31
2022-11-08T08:23:37.689Z,8.27
2022-11-08T08:24:37.693Z,8.03
2022-11-08T08:25:37.697Z,7.98
2022-11-08T08:26:37.689Z,7.97
2022-11-08T08:27:37.645Z,8.00
2022-11-08T08:28:37.667Z,8.06
2022-11-08T08:29:37.664Z,8.05
2022-11-08T08:30:37.640Z,8.05
2022-11-08T08:31:37.645Z,8.12
2022-11-08T08:32:37.670Z,8.00
2022-11-08T08:33:38.137Z,7.90
2022-11-08T08:34:37.603Z,7.87
2022-11-08T08:35:37.607Z,8.41
2022-11-08T08:36:37.569Z,8.85
2022-11-08T08:37:37.604Z,8.92
2022-11-08T08:38:43.058Z,8.91
2022-11-08T08:39:39.552Z,9.21
2022-11-08T08:40:37.542Z,9.69
2022-11-08T08:41:37.553Z,10.07
2022-11-08T08:42:37.550Z,10.54
2022-11-08T08:43:37.533Z,11.02
2022-11-08T08:44:37.555Z,11.43
2022-11-08T08:45:37.534Z,11.80
2022-11-08T08:46:37.558Z,12.29
2022-11-08T08:47:37.550Z,12.85
2022-11-08T08:48:37.495Z,13.15
2022-11-08T08:49:37.531Z,12.90
2022-11-08T08:50:37.515Z,13.27
2022-11-08T08:51:37.463Z,13.56
2022-11-08T08:52:37.456Z,13.71
2022-11-08T08:53:37.460Z,13.74
2022-11-08T08:54:37.486Z,14.23
2022-11-08T08:55:37.472Z,14.59
2022-11-08T08:56:37.448Z,15.19
2022-11-08T08:57:37.437Z,16.01
2022-11-08T08:58:37.435Z,16.58
2022-11-08T09:01:39.447Z,15.43
2022-11-08T09:02:39.948Z,14.97
2022-11-08T09:03:39.408Z,14.88
2022-11-08T09:04:37.393Z,15.31
2022-11-08T09:05:37.376Z,15.58
2022-11-08T09:06:37.434Z,16.26
2022-11-08T09:08:09.283Z,17.04
2022-11-08T09:08:37.334Z,17.46
2022-11-08T09:09:37.358Z,17.83
2022-11-08T09:10:37.332Z,17.41
2022-11-08T09:11:37.334Z,16.99
2022-11-08T09:12:37.396Z,16.35
2022-11-08T09:13:37.299Z,15.98
2022-11-08T09:14:37.276Z,16.12
2022-11-08T09:15:38.261Z,16.35
2022-11-08T09:16:37.324Z,16.13
2022-11-08T09:17:37.276Z,16.01
2022-11-08T09:18:37.283Z,15.22
2022-11-08T09:19:37.243Z,15.25
2022-11-08T09:20:37.229Z,14.99
2022-11-08T09:21:37.263Z,15.06
2022-11-08T09:22:37.222Z,15.64
2022-11-08T09:23:37.248Z,16.01
2022-11-08T09:24:37.273Z,16.10
2022-11-08T09:25:37.217Z,16.05
2022-11-08T09:26:37.201Z,15.91
2022-11-08T09:27:37.203Z,16.05
2022-11-08T09:28:37.203Z,16.00
2022-11-08T09:29:37.177Z,15.58
2022-11-08T09:30:37.172Z,15.21
2022-11-08T09:31:37.157Z,15.64
2022-11-08T09:32:59.762Z,16.20
2022-11-08T09:33:39.255Z,16.91
2022-11-08T09:34:37.145Z,17.20
2022-11-08T09:35:37.145Z,17.09
2022-11-08T09:36:37.115Z,17.15
2022-11-08T09:37:37.113Z,17.36
2022-11-08T09:38:37.141Z,17.72
2022-11-08T09:39:37.117Z,18.20
2022-11-08T09:40:37.119Z,18.19
2022-11-08T09:41:37.095Z,17.86
2022-11-08T09:42:37.149Z,17.65
2022-11-08T09:43:37.092Z,17.45
2022-11-08T09:44:37.073Z,17.33
2022-11-08T09:45:37.067Z,17.31
2022-11-08T09:46:37.047Z,17.60
2022-11-08T09:47:37.923Z,17.80
2022-11-08T09:48:37.056Z,17.41
2022-11-08T09:49:37.038Z,17.22
2022-11-08T09:50:37.047Z,16.87
2022-11-08T09:51:37.711Z,16.71
2022-11-08T09:52:37.020Z,16.76
2022-11-08T09:53:37.072Z,16.99
2022-11-08T09:54:37.001Z,17.02
2022-11-08T09:55:36.985Z,17.38
2022-11-08T09:56:36.999Z,17.42
2022-11-08T09:57:36.963Z,17.06
2022-11-08T09:58:36.972Z,17.08
2022-11-08T09:59:36.931Z,16.58
2022-11-08T10:00:37.029Z,16.24
2022-11-08T10:01:36.991Z,16.24
2022-11-08T10:02:36.936Z,16.00
2022-11-08T10:03:36.964Z,15.98
2022-11-08T10:04:36.906Z,15.98
2022-11-08T10:05:37.901Z,16.02
2022-11-08T10:06:36.988Z,16.08
2022-11-08T10:07:36.889Z,16.33
2022-11-08T10:08:36.890Z,16.05
2022-11-08T10:09:36.982Z,15.91
2022-11-08T10:10:36.877Z,15.83
2022-11-08T10:11:36.882Z,15.77
2022-11-08T10:12:36.872Z,15.73
2022-11-08T10:13:36.874Z,15.92
2022-11-08T10:14:42.889Z,16.21
2022-11-08T10:15:38.814Z,16.56
2022-11-08T10:16:36.839Z,16.72
2022-11-08T10:17:36.821Z,16.58
2022-11-08T10:18:36.795Z,16.64
2022-11-08T10:19:36.810Z,17.14
2022-11-08T10:20:36.804Z,17.26
2022-11-08T10:21:36.781Z,17.27
2022-11-08T10:22:36.874Z,17.27
2022-11-08T10:23:36.808Z,17.39
2022-11-08T10:24:36.746Z,17.54
2022-11-08T10:25:36.807Z,17.56
2022-11-08T10:26:36.747Z,17.16
2022-11-08T10:27:36.726Z,17.08
2022-11-08T10:28:36.724Z,17.38
2022-11-08T10:29:36.735Z,17.54
2022-11-08T10:30:36.743Z,17.64
2022-11-08T10:31:36.710Z,17.85
2022-11-08T10:32:36.693Z,17.85
2022-11-08T10:33:36.697Z,17.90
2022-11-08T10:34:36.711Z,17.85
2022-11-08T10:35:36.667Z,17.70
2022-11-08T10:36:36.673Z,17.82
2022-11-08T10:37:36.633Z,17.80
2022-11-08T10:38:36.678Z,17.95
2022-11-08T10:39:36.642Z,17.92
2022-11-08T10:40:36.654Z,18.19
2022-11-08T10:41:36.616Z,18.16
2022-11-08T10:42:36.632Z,18.28
2022-11-08T10:43:36.632Z,18.41
2022-11-08T10:44:36.596Z,18.34
2022-11-08T10:45:36.583Z,18.16
2022-11-08T10:46:36.593Z,18.15
2022-11-08T10:47:36.575Z,18.13
2022-11-08T10:48:37.620Z,18.16
2022-11-08T10:49:36.560Z,18.15
2022-11-08T10:50:36.551Z,17.98
2022-11-08T10:51:36.538Z,17.71
2022-11-08T10:52:36.546Z,17.26
2022-11-08T10:53:37.400Z,17.16
2022-11-08T10:54:36.520Z,17.06
2022-11-08T10:55:36.516Z,17.01
2022-11-08T10:56:37.745Z,16.83
2022-11-08T10:57:36.572Z,16.78
2022-11-08T10:58:36.491Z,16.75
2022-11-08T10:59:36.490Z,16.69
2022-11-08T11:00:36.463Z,16.60
2022-11-08T11:01:36.492Z,16.42
2022-11-08T11:02:36.476Z,16.41
2022-11-08T11:03:36.465Z,16.32
2022-11-08T11:04:36.443Z,16.28
2022-11-08T11:05:36.436Z,16.16
2022-11-08T11:06:36.568Z,16.00
2022-11-08T11:07:36.426Z,16.12
2022-11-08T11:08:36.437Z,15.98
2022-11-08T11:09:36.401Z,15.98
2022-11-08T11:10:36.384Z,15.92
2022-11-08T11:11:36.418Z,15.88
2022-11-08T11:12:36.370Z,15.97
2022-11-08T11:13:36.516Z,16.01
2022-11-08T11:14:36.370Z,16.02
2022-11-08T11:15:36.362Z,16.17
2022-11-08T11:16:36.376Z,16.01
2022-11-08T11:17:39.118Z,16.00
2022-11-08T11:18:36.382Z,16.04
2022-11-08T11:19:36.338Z,16.08
2022-11-08T11:20:36.307Z,16.08
2022-11-08T11:21:36.330Z,16.15
2022-11-08T11:22:36.298Z,16.08
2022-11-08T11:23:36.336Z,16.13
2022-11-08T11:24:36.289Z,16.23
2022-11-08T11:25:36.303Z,16.09
2022-11-08T11:26:36.271Z,16.02
2022-11-08T11:27:36.289Z,16.00
2022-11-08T11:28:36.293Z,16.05
2022-11-08T11:29:36.253Z,16.02
2022-11-08T11:30:36.257Z,16.17
2022-11-08T11:31:36.249Z,16.23
2022-11-08T11:32:36.299Z,16.35
2022-11-08T11:33:36.329Z,16.50
2022-11-08T11:34:36.265Z,16.61
2022-11-08T11:35:36.210Z,16.71
2022-11-08T11:36:36.232Z,16.71
2022-11-08T11:37:36.181Z,16.84
2022-11-08T11:38:36.215Z,16.91
2022-11-08T11:39:36.160Z,16.94
2022-11-08T11:40:36.204Z,17.01
2022-11-08T11:41:36.217Z,17.09
2022-11-08T11:42:45.759Z,17.02
2022-11-08T11:43:38.148Z,17.09
2022-11-08T11:44:36.135Z,17.05
2022-11-08T11:45:36.191Z,17.12
2022-11-08T11:46:41.194Z,17.12
2022-11-08T11:47:38.096Z,17.30
2022-11-08T11:48:36.112Z,17.16
2022-11-08T11:49:36.141Z,17.27
2022-11-08T11:50:36.152Z,17.29
2022-11-08T11:51:36.166Z,17.29
2022-11-08T11:52:36.073Z,17.38
2022-11-08T11:53:36.984Z,17.45
2022-11-08T11:54:36.900Z,17.46
2022-11-08T11:55:36.046Z,17.56
2022-11-08T11:56:36.044Z,17.67
2022-11-08T11:57:37.036Z,17.71
2022-11-08T11:58:36.005Z,17.82
2022-11-08T11:59:36.015Z,17.72
2022-11-08T12:00:36.014Z,17.74
2022-11-08T12:01:36.048Z,17.76
2022-11-08T12:02:36.064Z,17.71
2022-11-08T12:03:36.024Z,17.72
2022-11-08T12:04:35.987Z,17.76
2022-11-08T12:05:36.946Z,17.65
2022-11-08T12:06:35.993Z,17.71
2022-11-08T12:07:35.952Z,17.78
2022-11-08T12:08:35.934Z,17.78
2022-11-08T12:09:35.964Z,17.82
2022-11-08T12:10:36.113Z,17.74
2022-11-08T12:11:35.957Z,17.76
2022-11-08T12:12:35.926Z,17.78
2022-11-08T12:13:35.938Z,17.85
2022-11-08T12:14:35.994Z,17.89
2022-11-08T12:15:35.985Z,17.92
2022-11-08T12:16:35.875Z,18.03
2022-11-08T12:17:35.907Z,18.00
2022-11-08T12:18:44.470Z,18.00
2022-11-08T12:19:37.956Z,18.00
2022-11-08T12:20:35.850Z,18.04
2022-11-08T12:21:35.905Z,18.18
2022-11-08T12:22:35.827Z,18.22
2022-11-08T12:23:35.863Z,18.11
2022-11-08T12:24:35.850Z,18.19
2022-11-08T12:25:35.834Z,18.13
2022-11-08T12:26:36.439Z,18.19
2022-11-08T12:27:36.449Z,18.00
2022-11-08T12:28:41.149Z,18.03
2022-11-08T12:29:37.851Z,18.11
2022-11-08T12:30:35.799Z,18.15
2022-11-08T12:31:35.843Z,18.01
2022-11-08T12:32:35.775Z,18.13
2022-11-08T12:33:35.779Z,18.20
2022-11-08T12:34:35.788Z,18.29
2022-11-08T12:35:35.754Z,18.19
2022-11-08T12:36:36.497Z,18.08
2022-11-08T12:37:35.745Z,18.08
2022-11-08T12:38:35.732Z,18.04
2022-11-08T12:39:35.700Z,18.07
2022-11-08T12:40:35.722Z,18.07
2022-11-08T12:41:35.704Z,18.01
2022-11-08T12:42:35.700Z,18.19
2022-11-08T12:43:35.719Z,17.95
2022-11-08T12:44:35.706Z,18.00
2022-11-08T12:45:35.722Z,18.03
2022-11-08T12:46:35.653Z,18.05
2022-11-08T12:47:35.659Z,18.07
2022-11-08T12:48:35.645Z,17.98
2022-11-08T12:49:35.637Z,18.00
2022-11-08T12:50:35.682Z,17.86
2022-11-08T12:51:35.641Z,17.71
2022-11-08T12:52:35.690Z,17.46
2022-11-08T12:53:35.637Z,17.27
2022-11-08T12:54:35.605Z,17.29
2022-11-08T12:55:35.637Z,17.14
2022-11-08T12:56:35.596Z,17.04
2022-11-08T12:57:35.592Z,17.05
2022-11-08T12:58:35.611Z,16.94
2022-11-08T12:59:35.592Z,16.89
2022-11-08T13:00:35.621Z,16.86
2022-11-08T13:01:35.590Z,16.87
2022-11-08T13:02:35.652Z,16.86
2022-11-08T13:03:35.540Z,16.89
2022-11-08T13:04:36.459Z,16.89
2022-11-08T13:05:35.604Z,16.99
2022-11-08T13:06:35.554Z,17.01
2022-11-08T13:07:35.552Z,17.04
2022-11-08T13:08:35.513Z,16.99
2022-11-08T13:09:35.479Z,17.04
2022-11-08T13:10:35.516Z,17.14
2022-11-08T13:11:35.474Z,17.05
2022-11-08T13:12:35.535Z,17.06
2022-11-08T13:13:35.520Z,17.12
2022-11-08T13:14:40.979Z,17.15
2022-11-08T13:15:37.585Z,17.12
2022-11-08T13:16:35.444Z,17.24
2022-11-08T13:17:35.458Z,17.26
2022-11-08T13:18:35.452Z,17.27
2022-11-08T13:19:35.431Z,17.12
2022-11-08T13:20:35.501Z,17.06
2022-11-08T13:21:35.466Z,16.91
2022-11-08T13:22:35.409Z,16.93
2022-11-08T13:23:35.404Z,16.78
2022-11-08T13:24:44.355Z,16.57
2022-11-08T13:25:37.373Z,16.54
2022-11-08T13:26:36.410Z,16.51
2022-11-08T13:27:35.344Z,16.49
2022-11-08T13:28:36.375Z,16.41
2022-11-08T13:29:35.329Z,16.49
2022-11-08T13:30:35.362Z,16.39
2022-11-08T13:31:35.333Z,16.43
2022-11-08T13:32:35.315Z,16.47
2022-11-08T13:33:35.346Z,16.41
2022-11-08T13:34:35.311Z,16.33
2022-11-08T13:35:36.003Z,16.33
2022-11-08T13:36:35.312Z,16.16
2022-11-08T13:37:35.337Z,16.17
2022-11-08T13:38:35.876Z,16.23
2022-11-08T13:39:35.276Z,16.15
2022-11-08T13:40:36.288Z,16.32
2022-11-08T13:41:35.260Z,16.29
2022-11-08T13:42:35.855Z,16.35
2022-11-08T13:43:35.268Z,16.41
2022-11-08T13:44:35.779Z,16.38
2022-11-08T13:45:35.265Z,16.46
2022-11-08T13:46:35.216Z,16.46
2022-11-08T13:47:35.213Z,16.56
2022-11-08T13:48:35.245Z,16.54
2022-11-08T13:49:35.292Z,16.60
2022-11-08T13:50:35.211Z,16.53
2022-11-08T13:51:35.249Z,16.50
2022-11-08T13:52:35.194Z,16.38
2022-11-08T13:53:35.880Z,16.47
2022-11-08T13:54:35.149Z,16.42
2022-11-08T13:55:35.181Z,16.35
2022-11-08T13:56:35.135Z,16.36
2022-11-08T13:57:35.251Z,16.29
2022-11-08T13:58:35.125Z,16.33
2022-11-08T13:59:35.210Z,16.32
2022-11-08T14:00:35.160Z,16.23
2022-11-08T14:01:38.702Z,16.28
2022-11-08T14:02:36.130Z,16.20
2022-11-08T14:03:35.144Z,16.32
2022-11-08T14:04:35.149Z,16.23
2022-11-08T14:05:35.091Z,16.17
2022-11-08T14:06:35.092Z,16.16
2022-11-08T14:07:35.052Z,16.17
2022-11-08T14:08:35.045Z,16.17
2022-11-08T14:09:35.058Z,16.23
2022-11-08T14:10:35.073Z,16.28
2022-11-08T14:11:35.033Z,16.24
2022-11-08T14:12:35.049Z,16.16
2022-11-08T14:13:35.052Z,16.17
2022-11-08T14:15:06.923Z,16.20
2022-11-08T14:15:35.024Z,16.20
2022-11-08T14:16:35.000Z,16.01
2022-11-08T14:17:34.996Z,16.01
2022-11-08T14:18:35.067Z,15.94
2022-11-08T14:19:34.975Z,15.80
2022-11-08T14:20:35.006Z,15.82
2022-11-08T14:21:35.020Z,15.84
2022-11-08T14:22:34.953Z,15.75
2022-11-08T14:23:34.947Z,15.77
2022-11-08T14:24:34.928Z,15.76
2022-11-08T14:25:34.998Z,15.75
2022-11-08T14:26:34.931Z,15.68
2022-11-08T14:27:34.915Z,15.68
2022-11-08T14:28:34.924Z,15.58
2022-11-08T14:29:34.887Z,15.64
2022-11-08T14:30:34.916Z,15.57
2022-11-08T14:31:34.939Z,15.58
2022-11-08T14:32:34.885Z,15.58
2022-11-08T14:33:34.912Z,15.46
2022-11-08T14:34:34.856Z,15.58
2022-11-08T14:35:34.899Z,15.58
2022-11-08T14:36:34.854Z,15.47
2022-11-08T14:37:34.821Z,15.62
2022-11-08T14:38:34.851Z,15.62
2022-11-08T14:39:34.831Z,15.49
2022-11-08T14:40:34.813Z,15.51
2022-11-08T14:41:34.845Z,15.52
2022-11-08T14:42:34.831Z,15.51
2022-11-08T14:43:34.821Z,15.51
2022-11-08T14:44:34.774Z,15.43
2022-11-08T14:45:34.780Z,15.40
2022-11-08T14:46:34.816Z,15.42
2022-11-08T14:47:34.797Z,15.33
2022-11-08T14:48:34.792Z,15.33
2022-11-08T14:49:35.491Z,15.19
2022-11-08T14:50:34.759Z,15.25
2022-11-08T14:51:34.740Z,15.25
2022-11-08T14:52:34.806Z,15.25
2022-11-08T14:53:34.718Z,15.11
2022-11-08T14:54:34.716Z,15.02
2022-11-08T14:55:34.689Z,15.11
2022-11-08T14:56:34.723Z,15.03
2022-11-08T14:57:34.690Z,15.03
2022-11-08T14:58:34.775Z,15.03
2022-11-08T14:59:34.663Z,14.99
2022-11-08T15:00:35.647Z,14.82
2022-11-08T15:01:34.737Z,14.88
2022-11-08T15:02:34.650Z,14.81
2022-11-08T15:03:34.669Z,14.72
2022-11-08T15:04:34.624Z,14.81
2022-11-08T15:05:34.627Z,14.84
2022-11-08T15:06:34.688Z,14.68
2022-11-08T15:07:34.601Z,14.62
2022-11-08T15:08:34.628Z,14.62
2022-11-08T15:09:34.605Z,14.60
2022-11-08T15:10:34.598Z,14.55
2022-11-08T15:11:34.617Z,14.53
2022-11-08T15:12:34.570Z,14.53
2022-11-08T15:13:34.575Z,14.45
2022-11-08T15:14:34.547Z,14.51
2022-11-08T15:15:34.596Z,14.47
2022-11-08T15:16:34.551Z,14.47
2022-11-08T15:17:34.621Z,14.50
2022-11-08T15:18:34.555Z,14.50
2022-11-08T15:19:34.501Z,14.47
2022-11-08T15:20:34.545Z,14.50
2022-11-08T15:21:34.505Z,14.55
2022-11-08T15:22:34.528Z,14.54
2022-11-08T15:23:34.516Z,14.54
2022-11-08T15:24:34.510Z,14.51
2022-11-08T15:25:34.518Z,14.55
2022-11-08T15:26:34.460Z,14.45
2022-11-08T15:27:34.482Z,14.41
2022-11-08T15:28:34.441Z,14.30
2022-11-08T15:29:34.477Z,14.40
2022-11-08T15:30:34.432Z,14.44
2022-11-08T15:31:34.447Z,14.40
2022-11-08T15:32:34.451Z,14.29
2022-11-08T15:33:34.415Z,14.43
2022-11-08T15:34:34.452Z,14.32
2022-11-08T15:35:34.520Z,14.29
2022-11-08T15:36:34.368Z,14.28
2022-11-08T15:37:34.371Z,14.11
2022-11-08T15:38:34.354Z,14.11
2022-11-08T15:39:34.398Z,14.07
2022-11-08T15:40:34.337Z,13.92
2022-11-08T15:41:35.400Z,14.04
2022-11-08T15:42:34.366Z,13.90
2022-11-08T15:43:34.324Z,13.89
2022-11-08T15:44:34.317Z,13.78
2022-11-08T15:45:34.340Z,13.62
2022-11-08T15:46:34.392Z,13.72
2022-11-08T15:47:34.307Z,13.65
2022-11-08T15:48:35.326Z,13.74
2022-11-08T15:49:34.992Z,13.74
2022-11-08T15:50:34.283Z,13.74
2022-11-08T15:51:34.304Z,13.68
2022-11-08T15:52:34.279Z,13.68
2022-11-08T15:53:34.286Z,13.77
2022-11-08T15:54:34.260Z,13.77
2022-11-08T15:55:34.222Z,13.79
2022-11-08T15:56:34.250Z,13.86
2022-11-08T15:57:34.260Z,13.77
2022-11-08T15:58:34.256Z,13.78
2022-11-08T15:59:34.213Z,13.83
2022-11-08T16:00:34.224Z,13.79
2022-11-08T16:01:39.846Z,13.83
2022-11-08T16:02:36.213Z,13.79
2022-11-08T16:03:34.195Z,13.85
2022-11-08T16:04:34.172Z,13.78
2022-11-08T16:05:34.197Z,13.70
2022-11-08T16:06:34.208Z,13.75
2022-11-08T16:07:34.195Z,13.70
2022-11-08T16:08:34.180Z,13.67
2022-11-08T16:09:34.116Z,13.68
2022-11-08T16:10:34.248Z,13.74
2022-11-08T16:11:34.123Z,13.83
2022-11-08T16:12:34.130Z,13.85
2022-11-08T16:13:34.210Z,13.90
2022-11-08T16:14:34.136Z,13.89
2022-11-08T16:15:34.144Z,13.92
2022-11-08T16:16:35.187Z,13.87
2022-11-08T16:17:35.075Z,13.89
2022-11-08T16:18:34.072Z,13.78
2022-11-08T16:19:34.104Z,13.83
2022-11-08T16:20:34.108Z,13.92
2022-11-08T16:21:34.056Z,13.85
2022-11-08T16:22:34.030Z,13.85
2022-11-08T16:23:34.049Z,13.95
2022-11-08T16:24:34.045Z,13.89
2022-11-08T16:25:34.034Z,13.74
2022-11-08T16:26:34.079Z,13.67
2022-11-08T16:27:34.541Z,13.56
2022-11-08T16:28:33.994Z,13.39
2022-11-08T16:29:34.077Z,13.33
2022-11-08T16:30:34.010Z,13.18
2022-11-08T16:31:34.045Z,13.28
2022-11-08T16:32:33.998Z,13.15
2022-11-08T16:33:34.003Z,13.15
2022-11-08T16:34:35.031Z,13.13
2022-11-08T16:35:33.935Z,13.15
2022-11-08T16:36:34.016Z,13.16
2022-11-08T16:37:33.984Z,13.18
2022-11-08T16:38:33.956Z,13.28
2022-11-08T16:39:33.975Z,13.19
2022-11-08T16:40:33.982Z,13.20
2022-11-08T16:41:37.629Z,13.39
2022-11-08T16:42:34.906Z,13.35
2022-11-08T16:43:33.918Z,13.27
2022-11-08T16:44:33.911Z,13.33
2022-11-08T16:46:03.026Z,13.23
2022-11-08T16:46:35.883Z,13.27
2022-11-08T16:47:33.893Z,13.35
2022-11-08T16:48:33.919Z,13.25
2022-11-08T16:49:33.946Z,13.25
2022-11-08T16:50:33.851Z,13.30
2022-11-08T16:51:33.817Z,13.25
2022-11-08T16:52:33.906Z,13.23
2022-11-08T16:53:33.833Z,13.18
2022-11-08T16:54:33.853Z,13.22
2022-11-08T16:55:33.802Z,13.11
2022-11-08T16:56:33.814Z,13.15
2022-11-08T16:57:35.247Z,13.11
2022-11-08T16:58:34.778Z,13.13
2022-11-08T16:59:33.792Z,13.12
2022-11-08T17:00:33.889Z,13.15
2022-11-08T17:01:33.791Z,13.13
2022-11-08T17:02:33.746Z,13.09
2022-11-08T17:03:33.740Z,13.09
2022-11-08T17:04:33.786Z,13.00
2022-11-08T17:05:33.729Z,12.98